Time;durP1;ratioP1;P1;durP2;ratioP2;P2;SDS_P1;SDS_P2;PMS_P1;PMS_P2;Temp;Humidity;BMP_temperature;BMP_pressure;BME280_temperature;BME280_humidity;BME280_pressure;Samples;Min_cycle;Max_cycle;Signal;HPM_P1;HPM_P2
2023/06/26 12:19:57;;;;;;;5.40;2.72;;;;;;;30.61;100.00;153745.94;5565354;22;20433;-59
2023/06/26 12:22:24;;;;;;;6.50;3.28;;;;;;;30.58;100.00;153739.56;4986276;28;20294;-63
2023/06/26 12:24:51;;;;;;;3.90;3.42;;;;;;;30.45;100.00;153704.94;4992320;28;20585;-61
2023/06/26 12:27:20;;;;;;;3.63;3.25;;;;;;;30.33;100.00;153675.44;4985847;28;20206;-61
2023/06/26 12:29:51;;;;;;;3.22;3.03;;;;;;;30.30;100.00;153669.00;4991905;28;20202;-62
2023/06/26 12:32:18;;;;;;;6.88;6.45;;;;;;;29.97;100.00;153584.41;4986661;28;20298;-61
2023/06/26 12:34:50;;;;;;;7.32;6.70;;;;;;;29.21;100.00;153392.16;4989312;28;20210;-63
2023/06/26 12:37:19;;;;;;;8.38;7.65;;;;;;;28.79;100.00;153284.56;4992674;28;20201;-61
2023/06/26 12:39:50;;;;;;;9.73;7.05;;;;;;;28.20;100.00;153136.03;4997405;28;20196;-62
2023/06/26 12:42:18;;;;;;;7.65;7.18;;;;;;;27.81;100.00;153036.13;4998454;28;20192;-60
2023/06/26 12:44:45;;;;;;;7.90;7.07;;;;;;;27.16;100.00;152873.59;4998567;28;20495;-61
2023/06/26 12:47:14;;;;;;;8.98;8.18;;;;;;;26.76;100.00;152772.53;4998539;28;20195;-60
2023/06/26 12:49:42;;;;;;;8.95;8.27;;;;;;;26.56;100.00;152720.09;4998139;28;20195;-60
2023/06/26 12:52:10;;;;;;;9.20;8.50;;;;;;;26.47;100.00;152698.34;4980472;28;20195;-61
2023/06/26 12:54:40;;;;;;;9.95;8.40;;;;;;;26.35;100.00;152668.91;5016324;28;20715;-62
2023/06/26 12:57:09;;;;;;;13.38;9.20;;;;;;;26.10;100.00;147135.28;5017851;28;20195;-60
2023/06/26 12:59:37;;;;;;;8.32;7.75;;;;;;;25.80;100.00;127631.78;5018216;28;20636;-61
2023/06/26 13:02:05;;;;;;;8.40;8.00;;;;;;;25.57;100.00;108269.19;5017574;28;20205;-61
2023/06/26 13:04:32;;;;;;;8.57;8.18;;;;;;;25.63;100.00;104903.28;5017954;28;20573;-61
2023/06/26 13:06:59;;;;;;;8.15;7.60;;;;;;;25.37;100.00;101821.53;5017509;28;20207;-61
2023/06/26 13:09:33;;;;;;;8.32;7.68;;;;;;;25.47;100.00;101502.31;5018106;28;20648;-60
2023/06/26 13:12:02;;;;;;;9.18;8.30;;;;;;;25.44;100.00;101496.31;5017841;28;20643;-61
2023/06/26 13:14:29;;;;;;;8.15;7.75;;;;;;;25.64;100.00;116063.16;5018186;28;20183;-61
2023/06/26 13:16:57;;;;;;;9.00;7.90;;;;;;;25.65;100.00;115050.16;5018010;28;20190;-62
2023/06/26 13:19:24;;;;;;;8.32;7.82;;;;;;;25.83;100.00;127638.22;5017808;28;20239;-63
2023/06/26 13:21:51;;;;;;;8.98;8.20;;;;;;;25.87;100.00;125947.53;5017812;28;20230;-62
2023/06/26 13:24:18;;;;;;;8.77;7.75;;;;;;;25.84;100.00;122884.78;5017719;28;20190;-61
2023/06/26 13:26:45;;;;;;;8.95;7.63;;;;;;;25.85;100.00;122548.38;5017839;28;20225;-62
2023/06/26 13:29:13;;;;;;;8.18;7.53;;;;;;;26.07;100.00;127689.59;5017632;28;20192;-61
2023/06/26 13:31:40;;;;;;;8.75;7.97;;;;;;;26.06;100.00;134493.63;5017473;28;20194;-61
2023/06/26 13:34:07;;;;;;;10.00;9.18;;;;;;;26.13;100.00;152480.25;5017530;28;20199;-60
2023/06/26 13:36:34;;;;;;;8.15;7.75;;;;;;;26.22;100.00;152634.44;5017777;28;20183;-61
2023/06/26 13:39:02;;;;;;;7.90;7.30;;;;;;;26.24;100.00;152639.50;5017585;28;20196;-60
2023/06/26 13:41:29;;;;;;;15.10;7.75;;;;;;;26.29;100.00;152652.31;5017951;28;20568;-61
2023/06/26 13:43:58;;;;;;;8.10;7.50;;;;;;;26.23;100.00;152638.22;5017837;28;20564;-61
2023/06/26 13:46:27;;;;;;;7.80;7.07;;;;;;;26.07;100.00;152597.28;5017271;28;20783;-60
2023/06/26 13:48:54;;;;;;;8.93;8.18;;;;;;;26.05;100.00;152590.91;5017484;28;20213;-60
2023/06/26 13:51:21;;;;;;;7.85;7.32;;;;;;;25.95;100.00;152565.31;5015151;28;20194;-61
2023/06/26 13:53:48;;;;;;;8.38;7.85;;;;;;;25.96;100.00;152567.91;5014766;28;20217;-59
2023/06/26 13:56:14;;;;;;;7.80;6.97;;;;;;;26.11;100.00;152606.22;5014338;28;20202;-60
2023/06/26 13:58:41;;;;;;;6.75;6.55;;;;;;;26.18;100.00;152625.41;5014720;28;20687;-60
2023/06/26 14:01:10;;;;;;;7.28;6.78;;;;;;;26.24;100.00;152639.50;5014471;28;20198;-60
2023/06/26 14:03:38;;;;;;;7.78;7.28;;;;;;;26.24;100.00;152639.50;5014966;28;20191;-59
2023/06/26 14:06:10;;;;;;;7.43;6.82;;;;;;;26.27;100.00;152647.16;5014638;28;20206;-59
2023/06/26 14:08:37;;;;;;;7.38;6.90;;;;;;;26.22;100.00;152634.44;5014585;28;20588;-60
2023/06/26 14:11:04;;;;;;;7.30;6.78;;;;;;;26.35;100.00;152667.69;5014272;28;20218;-59
2023/06/26 14:13:31;;;;;;;7.50;6.88;;;;;;;26.39;100.00;152677.91;5006444;28;20636;-60
2023/06/26 14:15:58;;;;;;;6.75;6.25;;;;;;;26.56;100.00;152721.38;5014991;28;20195;-59
2023/06/26 14:18:25;;;;;;;7.22;6.82;;;;;;;26.46;100.00;152695.78;5014079;28;20209;-60
2023/06/26 14:20:54;;;;;;;7.03;6.72;;;;;;;26.56;100.00;152720.09;5013891;28;20738;-60
2023/06/26 14:23:21;;;;;;;10.45;6.60;;;;;;;26.61;100.00;152734.13;5013885;28;20197;-60
2023/06/26 14:25:49;;;;;;;7.55;7.07;;;;;;;26.44;100.00;152690.66;5014281;28;20238;-60
2023/06/26 14:28:16;;;;;;;7.47;6.72;;;;;;;26.31;100.00;152657.41;5015218;28;20182;-60
2023/06/26 14:30:43;;;;;;;6.90;6.60;;;;;;;26.33;100.00;152662.53;5015075;28;20191;-60
2023/06/26 14:33:11;;;;;;;7.68;7.18;;;;;;;26.30;100.00;152654.88;5014034;28;20199;-61
2023/06/26 14:35:41;;;;;;;7.45;6.82;;;;;;;26.32;100.00;152661.25;5016142;28;20191;-60
2023/06/26 14:38:09;;;;;;;7.18;6.63;;;;;;;26.26;100.00;152645.94;5013321;28;20199;-60
2023/06/26 14:40:36;;;;;;;7.80;7.10;;;;;;;26.33;100.00;152662.53;5013857;28;20572;-62
2023/06/26 14:43:03;;;;;;;14.13;12.98;;;;;;;26.27;100.00;152647.16;5013327;28;20250;-59
2023/06/26 14:45:29;;;;;;;7.25;6.85;;;;;;;25.74;100.00;152514.22;5005207;28;20194;-60
2023/06/26 14:47:56;;;;;;;7.85;7.28;;;;;;;25.85;100.00;152541.03;5013325;28;20286;-60
2023/06/26 14:50:23;;;;;;;6.95;6.65;;;;;;;25.84;100.00;152538.50;5013246;28;20197;-59
2023/06/26 14:52:50;;;;;;;7.00;6.60;;;;;;;25.85;100.00;152542.31;5013487;28;20190;-61
2023/06/26 14:55:18;;;;;;;6.78;6.20;;;;;;;25.88;100.00;152550.03;5013171;28;20202;-59
2023/06/26 14:57:45;;;;;;;6.72;6.22;;;;;;;25.81;100.00;152532.09;5013070;28;20198;-60
2023/06/26 15:00:13;;;;;;;6.85;6.45;;;;;;;25.89;100.00;152552.53;5013084;28;20206;-60
2023/06/26 15:02:41;;;;;;;7.72;6.95;;;;;;;25.97;100.00;152571.69;5012802;28;20194;-61
2023/06/26 15:05:08;;;;;;;7.18;6.85;;;;;;;25.98;100.00;152574.28;5013019;28;20260;-59
2023/06/26 15:07:35;;;;;;;7.70;7.03;;;;;;;25.98;100.00;152572.97;5012944;28;20302;-60
2023/06/26 15:10:02;;;;;;;6.97;6.35;;;;;;;25.90;100.00;152553.81;5013023;28;20197;-59
2023/06/26 15:12:30;;;;;;;6.97;6.57;;;;;;;25.80;100.00;152529.53;5012916;28;20198;-58
2023/06/26 15:14:57;;;;;;;7.28;6.78;;;;;;;25.70;100.00;152502.72;4995568;28;20309;-60
2023/06/26 15:17:24;;;;;;;6.90;6.40;;;;;;;25.58;100.00;152473.34;5013271;28;20187;-59
2023/06/26 15:19:51;;;;;;;7.28;6.97;;;;;;;25.51;100.00;152455.34;5013081;28;20649;-59
2023/06/26 15:22:19;;;;;;;8.20;6.57;;;;;;;25.53;100.00;152460.53;5012676;28;20237;-60
2023/06/26 15:24:46;;;;;;;10.93;6.78;;;;;;;25.50;100.00;152452.84;5012854;28;20191;-60
2023/06/26 15:27:14;;;;;;;7.80;7.28;;;;;;;25.51;100.00;152455.34;5012724;28;20222;-60
2023/06/26 15:29:42;;;;;;;7.00;6.60;;;;;;;25.66;100.00;152492.50;5013135;28;20669;-60
2023/06/26 15:32:09;;;;;;;7.57;7.03;;;;;;;25.46;100.00;152442.63;5012718;28;20194;-59
2023/06/26 15:34:36;;;;;;;8.20;6.45;;;;;;;25.61;100.00;152480.97;5012748;28;20191;-60
2023/06/26 15:37:03;;;;;;;6.55;6.05;;;;;;;25.77;100.00;152520.59;5012668;28;20194;-60
2023/06/26 15:39:30;;;;;;;6.80;6.50;;;;;;;25.79;100.00;152527.00;5012985;28;20213;-59
2023/06/26 15:41:57;;;;;;;6.57;6.18;;;;;;;25.83;100.00;152537.22;5012936;28;20209;-60
2023/06/26 15:44:24;;;;;;;6.97;6.55;;;;;;;25.88;100.00;152550.03;5012626;28;20209;-58
2023/06/26 15:46:52;;;;;;;6.65;6.25;;;;;;;25.79;100.00;152527.00;5012722;28;20585;-60
2023/06/26 15:49:19;;;;;;;6.75;6.28;;;;;;;25.51;100.00;152455.34;5012524;28;20201;-60
2023/06/26 15:51:47;;;;;;;6.03;5.63;;;;;;;25.71;100.00;152506.56;5012717;28;20549;-60
2023/06/26 15:54:15;;;;;;;6.93;6.63;;;;;;;25.76;100.00;152518.03;5012697;28;20222;-60
2023/06/26 15:56:43;;;;;;;6.88;6.40;;;;;;;25.86;100.00;152544.88;4995251;28;20198;-60
2023/06/26 15:59:10;;;;;;;7.30;6.75;;;;;;;25.78;100.00;152524.44;5012728;28;20649;-59
2023/06/26 16:01:37;;;;;;;6.47;5.90;;;;;;;25.87;100.00;152547.44;5012204;28;20187;-60
2023/06/26 16:04:06;;;;;;;7.65;7.25;;;;;;;25.79;100.00;152527.00;5012689;28;20648;-59
2023/06/26 16:06:33;;;;;;;8.50;6.18;;;;;;;25.70;100.00;152504.00;5012384;28;20214;-60
2023/06/26 16:09:00;;;;;;;6.78;6.22;;;;;;;25.76;100.00;152518.03;5012153;28;20195;-59
2023/06/26 16:11:27;;;;;;;6.55;6.25;;;;;;;25.52;100.00;152457.94;5004641;28;20233;-60
2023/06/26 16:13:54;;;;;;;6.43;6.03;;;;;;;25.51;100.00;152455.34;5011515;28;20190;-59
2023/06/26 16:16:21;;;;;;;6.63;6.32;;;;;;;25.58;100.00;152472.03;5006969;28;20211;-59
2023/06/26 16:18:48;;;;;;;6.72;6.30;;;;;;;25.39;100.00;152424.69;4992370;28;20194;-60
2023/06/26 16:21:17;;;;;;;5.95;5.43;;;;;;;25.47;100.00;152445.13;4992494;28;20239;-60
2023/06/26 16:23:46;;;;;;;7.43;6.97;;;;;;;25.48;100.00;152447.72;4992432;28;20278;-59
2023/06/26 16:26:13;;;;;;;6.38;5.80;;;;;;;25.43;100.00;152434.91;4992315;28;20235;-58
2023/06/26 16:28:40;;;;;;;6.93;6.45;;;;;;;25.44;100.00;152437.50;4992598;28;20191;-61
2023/06/26 16:31:07;;;;;;;7.25;6.70;;;;;;;25.52;100.00;152457.94;4991581;28;20203;-60
2023/06/26 16:33:33;;;;;;;6.30;6.00;;;;;;;25.47;100.00;152445.13;4991836;28;20183;-59
2023/06/26 16:36:00;;;;;;;6.50;6.30;;;;;;;25.38;100.00;152422.13;4992263;28;20203;-60
2023/06/26 16:38:29;;;;;;;7.47;6.43;;;;;;;25.24;100.00;152386.38;4992212;28;20287;-59
2023/06/26 16:40:55;;;;;;;7.88;6.18;;;;;;;25.26;100.00;152391.47;4992657;28;20654;-60
2023/06/26 16:43:25;;;;;;;6.82;6.40;;;;;;;25.24;100.00;152386.38;4975553;28;20195;-59
2023/06/26 16:45:52;;;;;;;6.78;6.18;;;;;;;25.25;100.00;152388.97;4992062;28;20207;-58
2023/06/26 16:48:19;;;;;;;6.70;6.30;;;;;;;25.13;100.00;152358.25;4992851;28;20210;-60
2023/06/26 16:50:46;;;;;;;7.47;6.93;;;;;;;25.25;100.00;152388.97;4991769;28;20196;-60
2023/06/26 16:53:14;;;;;;;6.63;6.30;;;;;;;25.26;100.00;152392.75;4992532;28;20684;-61
2023/06/26 16:55:42;;;;;;;7.20;6.80;;;;;;;25.11;100.00;152354.44;4992486;28;20219;-60
2023/06/26 16:58:09;;;;;;;6.05;5.85;;;;;;;25.06;100.00;152341.66;4992555;28;20194;-63
2023/06/26 17:00:38;;;;;;;6.43;6.22;;;;;;;24.93;100.00;152308.44;4992303;28;20641;-59
2023/06/26 17:03:05;;;;;;;6.60;6.18;;;;;;;24.82;100.00;152281.59;4991967;28;20191;-59
2023/06/26 17:05:32;;;;;;;6.38;6.07;;;;;;;24.98;100.00;152321.22;4992267;28;20199;-59
2023/06/26 17:07:59;;;;;;;6.85;6.30;;;;;;;25.17;100.00;152369.75;4992205;28;20218;-59
2023/06/26 17:10:26;;;;;;;7.13;6.80;;;;;;;25.13;100.00;152358.25;4992296;28;20203;-59
2023/06/26 17:12:54;;;;;;;6.63;6.03;;;;;;;25.05;100.00;152337.81;4991939;28;20197;-59
2023/06/26 17:15:25;;;;;;;7.10;6.70;;;;;;;25.05;100.00;152339.09;4992344;28;20645;-61
2023/06/26 17:17:52;;;;;;;6.80;6.28;;;;;;;24.85;100.00;152289.31;4991956;28;20187;-60
2023/06/26 17:20:20;;;;;;;6.55;6.20;;;;;;;25.01;100.00;152328.88;4991772;28;20673;-60
2023/06/26 17:22:48;;;;;;;9.20;6.85;;;;;;;24.97;100.00;151675.16;4992419;28;20250;-59
2023/06/26 17:25:15;;;;;;;6.93;6.53;;;;;;;24.92;100.00;151938.69;4992212;28;20692;-59
2023/06/26 17:27:42;;;;;;;6.72;6.32;;;;;;;24.78;100.00;139653.31;4995691;28;20215;-60
2023/06/26 17:30:12;;;;;;;7.03;6.72;;;;;;;24.74;100.00;132840.97;4995469;28;20194;-59
2023/06/26 17:32:39;;;;;;;7.00;6.70;;;;;;;24.72;100.00;128760.06;4994614;28;20200;-60
2023/06/26 17:35:07;;;;;;;8.38;6.88;;;;;;;24.57;100.00;124999.03;4995342;28;20195;-59
2023/06/26 17:37:34;;;;;;;7.05;6.65;;;;;;;24.70;100.00;120620.38;4995239;28;20286;-59
2023/06/26 17:40:01;;;;;;;7.45;7.15;;;;;;;24.70;100.00;117912.41;4995283;28;20203;-59
2023/06/26 17:42:28;;;;;;;7.28;6.82;;;;;;;24.65;100.00;116549.44;4977957;28;20199;-59
2023/06/26 17:44:55;;;;;;;7.80;7.30;;;;;;;24.75;100.00;113525.94;4995510;28;20557;-60
2023/06/26 17:47:23;;;;;;;7.97;7.28;;;;;;;24.64;100.00;109452.38;4994989;28;20207;-59
2023/06/26 17:49:50;;;;;;;8.25;7.53;;;;;;;24.61;100.00;94964.38;4995108;28;20187;-59
2023/06/26 17:52:17;;;;;;;7.85;7.43;;;;;;;24.63;100.00;77199.34;4995304;28;20205;-59
2023/06/26 17:54:44;;;;;;;7.97;7.47;;;;;;;24.41;100.00;67824.38;4995239;28;20191;-59
2023/06/26 17:57:11;;;;;;;9.35;7.45;;;;;;;24.55;100.00;61843.53;4994989;28;20192;-59
2023/06/26 17:59:38;;;;;;;8.50;7.80;;;;;;;24.52;100.00;59844.50;4977910;28;20672;-59
2023/06/26 18:02:05;;;;;;;8.60;7.90;;;;;;;24.35;100.00;56170.53;4994788;28;20203;-60
2023/06/26 18:04:34;;;;;;;8.77;8.18;;;;;;;24.49;100.00;56849.13;4994724;28;20191;-59
2023/06/26 18:07:00;;;;;;;8.25;7.72;;;;;;;24.36;100.00;54843.00;4994982;28;20580;-59
2023/06/26 18:09:27;;;;;;;8.77;8.07;;;;;;;24.48;100.00;56183.09;4994966;28;20196;-59
2023/06/26 18:11:54;;;;;;;9.25;8.25;;;;;;;24.44;100.00;46558.59;4994681;28;20195;-60
2023/06/26 18:14:21;;;;;;;8.93;8.05;;;;;;;24.24;100.00;34310.59;4994954;28;20223;-59
2023/06/26 18:16:48;;;;;;;9.48;8.60;;;;;;;24.33;100.00;32006.69;4994547;28;20191;-58
2023/06/26 18:19:15;;;;;;;8.55;7.88;;;;;;;24.35;100.00;32337.69;4994877;28;20661;-60
2023/06/26 18:21:43;;;;;;;8.60;7.78;;;;;;;24.35;100.00;31348.59;4994477;28;20323;-59
2023/06/26 18:24:10;;;;;;;9.30;8.35;;;;;;;24.16;100.00;31007.97;4994277;28;20202;-59
2023/06/26 18:26:37;;;;;;;10.07;9.07;;;;;;;24.18;100.00;29361.41;4994363;28;20195;-59
2023/06/26 18:29:03;;;;;;;9.90;8.88;;;;;;;24.20;100.00;26728.00;4994655;28;20641;-60
2023/06/26 18:31:30;;;;;;;13.95;10.50;;;;;;;24.23;100.00;23767.53;4994328;28;20195;-60
2023/06/26 18:33:58;;;;;;;9.25;8.10;;;;;;;24.03;100.00;22115.41;4994766;28;20203;-59
2023/06/26 18:36:24;;;;;;;8.93;8.27;;;;;;;24.00;100.00;21456.94;4994018;28;20210;-59
2023/06/26 18:38:53;;;;;;;9.55;8.38;;;;;;;23.91;100.00;16528.91;4994424;28;20210;-59
2023/06/26 18:41:19;;;;;;;9.30;8.32;;;;;;;23.65;100.00;12915.53;4994497;28;20631;-60
2023/06/26 18:43:47;;;;;;;10.52;8.40;;;;;;;23.75;100.00;11280.31;4994056;28;20195;-58
2023/06/26 18:46:14;;;;;;;9.88;9.07;;;;;;;23.75;100.00;11935.38;4994425;28;20196;-58
2023/06/26 18:48:41;;;;;;;10.15;9.15;;;;;;;23.38;100.00;7346.91;4994163;28;20692;-59
2023/06/26 18:51:09;;;;;;;10.20;9.32;;;;;;;23.32;100.00;7019.03;4994101;28;20515;-59
2023/06/26 18:53:38;;;;;;;12.23;9.27;;;;;;;23.29;100.00;12578.50;4993993;28;20187;-59
2023/06/26 18:56:07;;;;;;;10.20;9.23;;;;;;;23.37;100.00;8000.50;4993978;28;20196;-60
2023/06/26 18:58:34;;;;;;;15.45;10.13;;;;;;;23.23;100.00;8978.81;4994006;28;20188;-59
2023/06/26 19:01:01;;;;;;;11.20;10.07;;;;;;;23.29;100.00;11923.91;4993886;28;20198;-59
2023/06/26 19:03:28;;;;;;;9.45;8.75;;;;;;;23.23;100.00;10940.97;4993990;28;20668;-59
2023/06/26 19:05:55;;;;;;;10.32;9.38;;;;;;;23.16;100.00;11593.75;4993686;28;20198;-59
2023/06/26 19:08:22;;;;;;;11.20;9.57;;;;;;;23.07;100.00;17812.59;4993880;28;20238;-59
2023/06/26 19:10:48;;;;;;;9.38;8.50;;;;;;;22.84;100.00;15184.94;4993732;28;20546;-59
2023/06/26 19:13:17;;;;;;;9.63;8.65;;;;;;;22.85;100.00;18132.84;4993966;28;20187;-58
2023/06/26 19:15:43;;;;;;;8.65;7.95;;;;;;;22.88;100.00;25350.53;4993509;28;20199;-59
2023/06/26 19:18:10;;;;;;;8.75;7.43;;;;;;;22.86;100.00;38840.19;4993647;28;20472;-59
2023/06/26 19:20:37;;;;;;;4.95;4.70;;;;;;;22.38;100.00;151663.72;4993514;28;20278;-58
2023/06/26 19:23:05;;;;;;;6.78;6.32;;;;;;;22.71;100.00;127654.53;4993328;28;20192;-60
2023/06/26 19:25:32;;;;;;;8.45;6.90;;;;;;;22.80;100.00;93672.44;4993211;28;20199;-59
2023/06/26 19:27:59;;;;;;;6.13;5.63;;;;;;;22.75;100.00;151759.41;4993184;28;20251;-58
2023/06/26 19:30:27;;;;;;;6.20;5.60;;;;;;;22.91;100.00;151799.00;4993265;28;20187;-60
2023/06/26 19:32:54;;;;;;;7.18;6.10;;;;;;;22.91;100.00;151799.00;4993301;28;20223;-59
2023/06/26 19:35:21;;;;;;;6.95;6.30;;;;;;;22.91;100.00;139898.94;4993079;28;20195;-58
2023/06/26 19:37:48;;;;;;;7.97;6.90;;;;;;;22.96;100.00;147327.22;4993248;28;20258;-60
2023/06/26 19:40:15;;;;;;;7.82;7.25;;;;;;;22.91;100.00;135825.97;4993637;28;20542;-59
2023/06/26 19:42:42;;;;;;;7.10;6.45;;;;;;;22.90;100.00;138878.19;4993227;28;20203;-59
2023/06/26 19:45:10;;;;;;;7.75;7.15;;;;;;;22.87;100.00;115529.31;4993164;28;20275;-59
2023/06/26 19:47:39;;;;;;;7.32;6.18;;;;;;;22.91;100.00;119924.16;4992785;28;20680;-59
2023/06/26 19:50:07;;;;;;;7.47;6.85;;;;;;;22.86;100.00;103075.94;4992749;28;20191;-59
2023/06/26 19:52:35;;;;;;;8.20;7.60;;;;;;;22.76;100.00;66305.69;4993130;28;20637;-59
2023/06/26 19:55:03;;;;;;;7.28;6.63;;;;;;;22.84;100.00;64320.53;4992631;28;20196;-58
2023/06/26 19:57:30;;;;;;;7.93;7.40;;;;;;;22.88;100.00;32582.84;4993021;28;20195;-59
2023/06/26 19:59:57;;;;;;;7.72;7.20;;;;;;;22.85;100.00;15840.03;4992995;28;20569;-59
2023/06/26 20:02:24;;;;;;;10.68;8.15;;;;;;;22.83;100.00;7010.88;4992970;28;20188;-58
2023/06/26 20:04:52;;;;;;;9.43;8.70;;;;;;;22.78;100.00;-3422.00;4992813;28;20679;-59
2023/06/26 20:07:19;;;;;;;8.38;7.80;;;;;;;22.68;100.00;2114.97;4992432;28;20215;-58
2023/06/26 20:09:46;;;;;;;10.00;8.00;;;;;;;22.54;100.00;6026.94;4992549;28;20283;-60
2023/06/26 20:12:14;;;;;;;9.07;8.18;;;;;;;22.38;100.00;-167.69;4992434;28;20203;-58
2023/06/26 20:14:41;;;;;;;7.90;7.50;;;;;;;22.36;100.00;-2771.47;4992497;28;20204;-60
2023/06/26 20:17:07;;;;;;;7.68;7.32;;;;;;;22.37;100.00;1460.63;4992677;28;20210;-59
2023/06/26 20:19:34;;;;;;;9.68;8.73;;;;;;;22.01;100.00;-169.66;4992762;28;20206;-59
2023/06/26 20:22:02;;;;;;;8.30;7.68;;;;;;;22.23;100.00;-494.00;4992101;28;20604;-59
2023/06/26 20:24:33;;;;;;;8.75;8.00;;;;;;;22.20;100.00;7326.59;4992379;28;20202;-58
2023/06/26 20:27:00;;;;;;;8.52;7.95;;;;;;;22.02;100.00;3737.69;4992349;28;20194;-59
2023/06/26 20:29:27;;;;;;;7.93;7.43;;;;;;;22.04;100.00;2760.63;4992558;28;20196;-58
2023/06/26 20:31:53;;;;;;;8.68;7.75;;;;;;;22.06;100.00;3412.34;4992224;28;20207;-59
2023/06/26 20:34:21;;;;;;;8.30;7.80;;;;;;;21.93;100.00;2759.53;4992299;28;20192;-59
2023/06/26 20:36:48;;;;;;;8.07;7.47;;;;;;;22.05;100.00;7323.97;4992294;28;20195;-58
2023/06/26 20:39:17;;;;;;;8.70;7.97;;;;;;;22.12;100.00;12548.56;4992439;28;20195;-60
2023/06/26 20:41:45;;;;;;;8.43;6.90;;;;;;;22.30;100.00;31234.69;4992555;28;20652;-59
2023/06/26 20:44:12;;;;;;;7.57;7.00;;;;;;;22.37;100.00;30581.00;4992168;28;20192;-59
2023/06/26 20:46:42;;;;;;;7.60;7.20;;;;;;;22.25;100.00;21714.97;4992281;28;20196;-59
2023/06/26 20:49:09;;;;;;;7.05;6.68;;;;;;;22.23;100.00;22369.41;4992098;28;20235;-59
2023/06/26 20:51:37;;;;;;;7.55;7.10;;;;;;;22.28;100.00;23027.31;4992134;28;20196;-59
2023/06/26 20:54:05;;;;;;;7.25;6.75;;;;;;;22.26;100.00;29589.63;4992083;28;20200;-58
2023/06/26 20:56:33;;;;;;;7.25;6.90;;;;;;;22.13;100.00;46703.75;4992047;28;20199;-58
2023/06/26 20:59:00;;;;;;;7.40;5.97;;;;;;;22.01;100.00;76527.25;4992272;28;20187;-59
2023/06/26 21:01:27;;;;;;;5.32;5.10;;;;;;;21.93;100.00;138765.25;4996215;28;20191;-59
2023/06/26 21:03:54;;;;;;;6.00;5.60;;;;;;;21.94;100.00;151554.06;4995775;28;20242;-60
2023/06/26 21:06:21;;;;;;;6.45;5.93;;;;;;;21.87;100.00;151537.47;4995923;28;20576;-59
2023/06/26 21:08:48;;;;;;;5.70;5.40;;;;;;;21.86;100.00;151533.63;4995703;28;20212;-60
2023/06/26 21:11:15;;;;;;;5.00;4.80;;;;;;;21.93;100.00;151551.53;4996094;28;20565;-58
2023/06/26 21:13:43;;;;;;;5.80;5.50;;;;;;;21.93;100.00;151551.53;4996061;28;20558;-59
2023/06/26 21:16:11;;;;;;;11.27;5.32;;;;;;;21.81;100.00;151520.91;4995572;28;20192;-59
2023/06/26 21:18:37;;;;;;;5.10;4.90;;;;;;;21.88;100.00;151538.75;4995710;28;20188;-60
2023/06/26 21:21:04;;;;;;;6.07;4.60;;;;;;;21.90;100.00;151542.59;4995933;28;20278;-59
2023/06/26 21:23:31;;;;;;;5.20;4.90;;;;;;;21.83;100.00;151527.25;4995496;28;20218;-59
2023/06/26 21:25:58;;;;;;;4.85;4.65;;;;;;;21.99;100.00;151566.81;4996052;28;20195;-59
2023/06/26 21:28:25;;;;;;;4.82;4.53;;;;;;;22.06;100.00;151583.41;4995580;28;20219;-59
2023/06/26 21:30:53;;;;;;;4.88;4.45;;;;;;;22.09;100.00;151592.34;4995430;28;20200;-59
2023/06/26 21:33:20;;;;;;;4.55;4.20;;;;;;;22.09;100.00;151592.34;4995438;28;20206;-59
2023/06/26 21:35:47;;;;;;;4.55;4.22;;;;;;;22.17;100.00;151611.44;4995675;28;20196;-60
2023/06/26 21:38:13;;;;;;;4.40;4.20;;;;;;;22.19;100.00;151616.56;4995612;28;20191;-58
2023/06/26 21:40:40;;;;;;;4.50;4.20;;;;;;;22.22;100.00;151625.50;4995226;28;20191;-58
2023/06/26 21:43:07;;;;;;;4.93;4.60;;;;;;;22.25;100.00;151633.13;4995252;28;20191;-59
2023/06/26 21:45:36;;;;;;;4.70;4.50;;;;;;;22.30;100.00;151644.59;4995589;28;20567;-58
2023/06/26 21:48:04;;;;;;;5.35;4.45;;;;;;;22.25;100.00;151631.84;4995039;28;20212;-58
2023/06/26 21:50:31;;;;;;;4.60;4.30;;;;;;;22.28;100.00;151640.75;4995280;28;20211;-58
2023/06/26 21:52:58;;;;;;;4.32;4.00;;;;;;;22.28;100.00;151640.75;4995013;28;20198;-59
2023/06/26 21:55:25;;;;;;;4.07;3.97;;;;;;;22.23;100.00;151628.06;4995275;28;20203;-58
2023/06/26 21:57:52;;;;;;;4.88;4.47;;;;;;;22.18;100.00;151614.00;4995364;28;20187;-59
2023/06/26 22:00:19;;;;;;;4.55;4.22;;;;;;;22.28;100.00;151640.75;4994925;28;20192;-59
2023/06/26 22:02:46;;;;;;;4.43;4.15;;;;;;;22.30;100.00;151645.88;4995156;28;20192;-59
2023/06/26 22:05:14;;;;;;;4.10;3.90;;;;;;;22.32;100.00;151649.69;4995126;28;20202;-59
2023/06/26 22:07:41;;;;;;;4.43;4.22;;;;;;;22.38;100.00;151663.72;4995252;28;20191;-59
2023/06/26 22:10:08;;;;;;;4.28;4.10;;;;;;;22.36;100.00;150907.56;4994838;28;20207;-59
2023/06/26 22:12:35;;;;;;;4.10;3.90;;;;;;;22.33;100.00;139425.66;4993766;28;20200;-59
2023/06/26 22:15:03;;;;;;;4.10;3.90;;;;;;;22.37;100.00;125215.97;4994632;28;20198;-59
2023/06/26 22:17:31;;;;;;;4.32;4.13;;;;;;;22.35;100.00;116103.84;4994956;28;20191;-58
2023/06/26 22:19:58;;;;;;;4.45;4.15;;;;;;;22.42;100.00;109384.56;4994576;28;20203;-58
2023/06/26 22:22:27;;;;;;;4.13;4.00;;;;;;;22.30;100.00;100631.50;4994340;28;20242;-58
2023/06/26 22:24:53;;;;;;;4.82;4.53;;;;;;;22.47;100.00;89270.06;4994675;28;20188;-59
2023/06/26 22:27:20;;;;;;;4.13;3.83;;;;;;;22.47;100.00;78918.91;4994396;28;20215;-59
2023/06/26 22:29:47;;;;;;;4.68;4.38;;;;;;;22.46;100.00;71258.50;4994506;28;20215;-59
2023/06/26 22:32:15;;;;;;;4.20;4.00;;;;;;;22.52;100.00;67607.56;4994499;28;20192;-58
2023/06/26 22:34:41;;;;;;;4.35;4.05;;;;;;;22.59;100.00;65622.56;4994346;28;20192;-59
2023/06/26 22:37:08;;;;;;;4.60;4.30;;;;;;;22.62;100.00;64628.91;4994504;28;20195;-59
2023/06/26 22:39:38;;;;;;;4.43;4.10;;;;;;;22.65;100.00;61976.38;4994060;28;20183;-59
2023/06/26 22:42:05;;;;;;;4.28;3.97;;;;;;;22.68;100.00;62311.97;4977242;28;20199;-59
2023/06/26 22:44:32;;;;;;;4.28;4.07;;;;;;;22.75;100.00;65640.53;4993977;28;20227;-58
2023/06/26 22:46:59;;;;;;;6.45;4.40;;;;;;;22.76;100.00;68633.44;4994234;28;20210;-59
2023/06/26 22:49:26;;;;;;;4.38;4.05;;;;;;;22.78;100.00;72628.41;4994169;28;20302;-58
2023/06/26 22:51:53;;;;;;;4.07;3.78;;;;;;;22.79;100.00;72629.03;4994222;28;20196;-58
2023/06/26 22:54:20;;;;;;;5.50;4.40;;;;;;;22.76;100.00;74958.03;4994275;28;20712;-59
2023/06/26 22:56:48;;;;;;;6.38;3.75;;;;;;;22.74;100.00;75955.09;4993845;28;20214;-59
2023/06/26 22:59:15;;;;;;;3.72;3.63;;;;;;;22.77;100.00;78625.63;4994134;28;20202;-59
2023/06/26 23:01:42;;;;;;;4.28;4.07;;;;;;;22.71;100.00;79285.34;4993720;28;20274;-58
2023/06/26 23:04:09;;;;;;;4.60;4.30;;;;;;;22.71;100.00;79284.69;4993841;28;20211;-59
2023/06/26 23:06:36;;;;;;;5.22;3.83;;;;;;;22.72;100.00;84627.41;4993695;28;20207;-59
2023/06/26 23:09:03;;;;;;;3.95;3.83;;;;;;;22.78;100.00;92329.53;4993833;28;20214;-59
2023/06/26 23:11:30;;;;;;;4.30;4.10;;;;;;;22.73;100.00;105741.38;4993604;28;20191;-59
2023/06/26 23:13:59;;;;;;;4.40;4.10;;;;;;;22.71;100.00;106411.03;4993499;28;20573;-59
2023/06/26 23:16:25;;;;;;;3.80;3.70;;;;;;;22.64;100.00;109087.81;4993824;28;20218;-58
2023/06/26 23:18:52;;;;;;;5.03;3.60;;;;;;;22.69;100.00;111116.28;4993378;28;20198;-59
2023/06/26 23:21:21;;;;;;;4.07;3.88;;;;;;;22.66;100.00;113130.91;4993334;28;20274;-59
2023/06/26 23:23:52;;;;;;;4.38;4.05;;;;;;;22.75;100.00;120229.34;4993528;28;20793;-59
2023/06/26 23:26:19;;;;;;;5.57;4.07;;;;;;;22.64;100.00;120544.53;4993478;28;20641;-59
2023/06/26 23:28:47;;;;;;;4.30;4.10;;;;;;;22.79;100.00;132409.69;4993398;28;20270;-59
2023/06/26 23:31:16;;;;;;;4.28;3.97;;;;;;;22.81;100.00;148205.81;4993607;28;20218;-59
2023/06/26 23:33:45;;;;;;;4.30;3.83;;;;;;;22.75;100.00;151759.41;4993452;28;20227;-59
2023/06/26 23:36:12;;;;;;;4.78;4.38;;;;;;;22.87;100.00;151788.78;4993643;28;20693;-59
2023/06/26 23:38:42;;;;;;;4.10;3.92;;;;;;;22.77;100.00;149669.94;4993481;28;20206;-59